Time;durP1;ratioP1;P1;durP2;ratioP2;P2;SDS_P1;SDS_P2;PMS_P1;PMS_P2;Temp;Humidity;BMP_temperature;BMP_pressure;BME280_temperature;BME280_humidity;BME280_pressure;Samples;Min_cycle;Max_cycle;Signal;HPM_P1;HPM_P2
2021/01/01 00:01:37;;;;;;;82.47;58.07;;;9.90;58.80;;;;;;5047657;28;20922;-41
2021/01/01 00:04:04;;;;;;;76.50;52.70;;;9.90;58.80;;;;;;5053771;28;20438;-41
2021/01/01 00:06:30;;;;;;;58.97;44.77;;;9.90;58.90;;;;;;5049942;28;20445;-40
2021/01/01 00:08:56;;;;;;;56.90;39.40;;;9.90;58.80;;;;;;5055883;28;20866;-41
2021/01/01 00:11:23;;;;;;;49.43;37.10;;;9.80;58.70;;;;;;5042907;28;20587;-41
2021/01/01 00:13:48;;;;;;;57.20;40.60;;;9.70;59.00;;;;;;5052407;28;20442;-40
2021/01/01 00:16:14;;;;;;;52.00;36.77;;;9.80;59.00;;;;;;5057680;28;20936;-41
2021/01/01 00:18:40;;;;;;;47.90;32.83;;;9.80;58.90;;;;;;5058060;28;20523;-41
2021/01/01 00:21:06;;;;;;;45.67;30.97;;;9.80;58.80;;;;;;5051754;28;20176;-40
2021/01/01 00:23:33;;;;;;;46.67;32.43;;;9.80;58.70;;;;;;5055807;28;20443;-41
2021/01/01 00:25:59;;;;;;;50.60;34.33;;;9.80;58.80;;;;;;5048590;28;20465;-40
2021/01/01 00:28:25;;;;;;;46.70;32.93;;;9.80;58.90;;;;;;5054936;28;20427;-40
2021/01/01 00:30:52;;;;;;;43.57;31.53;;;9.80;58.90;;;;;;5056361;28;20494;-40
2021/01/01 00:33:18;;;;;;;45.73;33.37;;;9.80;59.00;;;;;;5046814;28;20246;-41
2021/01/01 00:35:43;;;;;;;46.83;32.80;;;9.80;58.90;;;;;;5046647;28;20447;-41
2021/01/01 00:38:09;;;;;;;49.97;35.07;;;9.80;58.90;;;;;;5043849;28;20466;-40
2021/01/01 00:40:35;;;;;;;50.03;34.40;;;9.80;58.80;;;;;;5045657;28;20275;-41
2021/01/01 00:43:01;;;;;;;54.27;35.03;;;9.80;58.80;;;;;;5051095;28;20539;-41
2021/01/01 00:45:26;;;;;;;49.13;34.17;;;9.80;58.80;;;;;;5047820;28;20184;-40
2021/01/01 00:47:52;;;;;;;45.63;36.10;;;9.80;58.80;;;;;;5069021;28;20900;-41
2021/01/01 00:50:17;;;;;;;51.70;32.67;;;9.80;58.90;;;;;;5047275;28;20401;-40
2021/01/01 00:52:43;;;;;;;44.00;32.50;;;9.70;58.70;;;;;;5054600;28;20199;-40
2021/01/01 00:55:09;;;;;;;43.63;31.57;;;9.70;58.70;;;;;;5047658;28;20586;-40
2021/01/01 00:57:35;;;;;;;46.20;31.57;;;9.70;59.30;;;;;;5047532;28;20631;-40
2021/01/01 01:00:01;;;;;;;45.90;33.40;;;9.70;58.60;;;;;;5050074;28;20446;-40
2021/01/01 01:02:26;;;;;;;49.70;34.87;;;9.70;58.60;;;;;;5047163;28;20204;-41
2021/01/01 01:04:52;;;;;;;55.10;37.67;;;9.70;58.80;;;;;;5054767;28;20556;-40
2021/01/01 01:07:18;;;;;;;53.00;37.00;;;9.70;59.00;;;;;;5052671;28;20193;-40
2021/01/01 01:09:44;;;;;;;59.60;38.33;;;9.70;59.00;;;;;;5057450;28;20188;-41
2021/01/01 01:12:09;;;;;;;67.43;42.60;;;9.70;59.10;;;;;;5053495;28;20243;-40
2021/01/01 01:14:36;;;;;;;60.27;42.13;;;9.70;59.00;;;;;;5053134;28;20455;-40
2021/01/01 01:17:01;;;;;;;60.70;41.40;;;9.70;58.90;;;;;;5046044;28;20486;-40
2021/01/01 01:19:27;;;;;;;67.43;38.23;;;9.60;59.00;;;;;;5051094;28;20879;-41
2021/01/01 01:21:53;;;;;;;54.67;37.90;;;9.60;59.00;;;;;;5050479;28;20198;-40
2021/01/01 01:24:19;;;;;;;52.50;38.60;;;9.60;59.10;;;;;;5049242;28;20292;-40
2021/01/01 01:26:45;;;;;;;63.47;38.63;;;9.60;59.30;;;;;;5058478;28;20203;-41
2021/01/01 01:29:11;;;;;;;53.80;36.77;;;9.60;59.30;;;;;;5050823;28;20905;-40
2021/01/01 01:31:38;;;;;;;44.67;31.40;;;9.60;59.40;;;;;;5053079;28;20485;-40
2021/01/01 01:34:04;;;;;;;37.10;27.30;;;9.60;59.30;;;;;;5053161;28;20523;-40
2021/01/01 01:36:30;;;;;;;33.87;25.00;;;9.60;59.10;;;;;;5053890;28;20439;-40
2021/01/01 01:38:56;;;;;;;34.10;24.40;;;9.60;58.90;;;;;;5048602;28;20449;-40
2021/01/01 01:41:22;;;;;;;38.60;27.77;;;9.60;58.90;;;;;;5057187;28;20236;-40
2021/01/01 01:43:48;;;;;;;44.33;29.33;;;9.60;59.00;;;;;;5044084;28;20455;-40
2021/01/01 01:46:13;;;;;;;43.10;30.30;;;9.60;59.20;;;;;;5051692;28;20539;-40
2021/01/01 01:48:40;;;;;;;38.30;27.97;;;9.60;59.20;;;;;;5053153;28;20224;-40
2021/01/01 01:51:09;;;;;;;40.83;29.90;;;9.50;59.20;;;;;;5054195;28;20231;-40
2021/01/01 01:53:40;;;;;;;36.90;27.57;;;9.60;59.30;;;;;;5060954;28;20435;-40
2021/01/01 01:56:06;;;;;;;35.73;27.20;;;9.60;59.50;;;;;;5045817;28;20431;-40
2021/01/01 01:58:32;;;;;;;41.90;27.60;;;9.50;59.40;;;;;;5053667;28;20439;-41
2021/01/01 02:00:58;;;;;;;37.73;28.67;;;9.60;59.50;;;;;;5043885;28;20431;-41
2021/01/01 02:03:25;;;;;;;45.70;29.23;;;9.50;59.50;;;;;;5045033;28;20228;-41
2021/01/01 02:05:51;;;;;;;39.93;28.63;;;9.60;59.70;;;;;;5057804;28;20228;-40
2021/01/01 02:08:17;;;;;;;41.47;30.50;;;9.60;59.80;;;;;;5047827;28;20914;-40
2021/01/01 02:10:43;;;;;;;43.47;29.67;;;9.60;59.60;;;;;;5046433;28;20504;-41
2021/01/01 02:13:10;;;;;;;41.20;29.90;;;9.50;59.50;;;;;;5053815;28;20188;-40
2021/01/01 02:15:36;;;;;;;38.07;26.53;;;9.50;59.60;;;;;;5056547;28;20500;-40
2021/01/01 02:18:01;;;;;;;40.80;26.23;;;9.50;59.50;;;;;;5053852;28;20435;-41
2021/01/01 02:20:27;;;;;;;29.30;21.80;;;9.50;59.40;;;;;;5047657;28;20206;-41
2021/01/01 02:22:52;;;;;;;38.43;25.50;;;9.50;59.50;;;;;;5043174;28;20250;-40
2021/01/01 02:25:18;;;;;;;32.47;23.83;;;9.50;59.60;;;;;;5053095;28;20207;-40
2021/01/01 02:27:44;;;;;;;31.43;22.77;;;9.60;59.70;;;;;;5046119;28;20193;-41
2021/01/01 02:30:10;;;;;;;32.23;22.47;;;9.60;59.70;;;;;;5045403;28;20184;-40
2021/01/01 02:32:36;;;;;;;33.27;23.70;;;9.60;59.70;;;;;;5044324;28;20185;-40
2021/01/01 02:35:03;;;;;;;34.63;24.03;;;9.60;59.60;;;;;;5056959;28;20446;-40
2021/01/01 02:37:28;;;;;;;35.83;24.53;;;9.60;59.50;;;;;;5047840;28;20478;-40
2021/01/01 02:39:54;;;;;;;35.03;23.43;;;9.60;59.30;;;;;;5052624;28;20478;-41
2021/01/01 02:42:19;;;;;;;33.70;23.33;;;9.60;59.40;;;;;;5046055;28;20184;-40
2021/01/01 02:44:47;;;;;;;32.97;21.67;;;9.60;59.30;;;;;;5049985;28;20192;-40
2021/01/01 02:47:14;;;;;;;38.57;27.33;;;9.60;59.50;;;;;;5040691;28;20294;-41
2021/01/01 02:49:40;;;;;;;39.60;27.70;;;9.60;59.50;;;;;;5045898;28;20447;-41
2021/01/01 02:52:05;;;;;;;40.50;29.00;;;9.50;59.50;;;;;;5046035;28;20509;-40
2021/01/01 02:54:31;;;;;;;40.20;26.93;;;9.50;59.50;;;;;;5056038;28;20223;-40
2021/01/01 02:56:56;;;;;;;41.47;29.03;;;9.60;59.60;;;;;;5056705;28;20963;-40
2021/01/01 02:59:22;;;;;;;42.57;30.20;;;9.60;59.60;;;;;;5057845;28;20189;-40
2021/01/01 03:01:48;;;;;;;41.70;30.07;;;9.50;59.40;;;;;;5051168;28;20296;-40
2021/01/01 03:04:14;;;;;;;42.03;29.20;;;9.40;59.60;;;;;;5052316;28;20208;-40
2021/01/01 03:06:39;;;;;;;47.80;29.57;;;9.30;59.60;;;;;;5054751;28;20284;-40
2021/01/01 03:09:06;;;;;;;44.10;30.03;;;9.40;59.80;;;;;;5049874;28;20879;-40
2021/01/01 03:11:31;;;;;;;37.77;29.10;;;9.40;59.60;;;;;;5053652;28;20228;-41
2021/01/01 03:13:57;;;;;;;44.40;30.20;;;9.40;59.80;;;;;;5050440;28;20450;-40
2021/01/01 03:16:23;;;;;;;44.53;29.77;;;9.40;59.70;;;;;;5046744;28;20193;-40
2021/01/01 03:18:49;;;;;;;43.17;28.60;;;9.50;59.70;;;;;;5057750;28;20473;-41
2021/01/01 03:21:17;;;;;;;38.40;27.27;;;9.60;59.60;;;;;;5060702;28;20279;-40
2021/01/01 03:23:43;;;;;;;41.43;29.60;;;9.60;59.50;;;;;;5053213;28;20189;-40
2021/01/01 03:26:08;;;;;;;41.43;29.93;;;9.70;59.50;;;;;;5046067;28;20449;-41
2021/01/01 03:28:34;;;;;;;42.07;27.27;;;9.60;59.40;;;;;;5055620;28;20197;-40
2021/01/01 03:31:01;;;;;;;39.70;28.50;;;9.60;59.50;;;;;;5049717;28;20574;-41
2021/01/01 03:33:26;;;;;;;39.93;27.30;;;9.60;59.50;;;;;;5066061;28;20584;-41
2021/01/01 03:35:52;;;;;;;39.00;26.07;;;9.70;59.60;;;;;;5056522;28;20473;-40
2021/01/01 03:38:18;;;;;;;39.60;28.40;;;9.60;59.30;;;;;;5054538;28;20195;-40
2021/01/01 03:40:45;;;;;;;46.07;29.10;;;9.40;59.80;;;;;;5059154;28;20274;-41
2021/01/01 03:43:11;;;;;;;38.17;29.27;;;9.40;60.00;;;;;;5048974;28;20600;-40
2021/01/01 03:45:36;;;;;;;39.17;28.87;;;9.50;59.90;;;;;;5049553;28;20435;-40
2021/01/01 03:48:02;;;;;;;41.13;26.33;;;9.50;59.90;;;;;;5055494;28;20192;-40
2021/01/01 03:50:27;;;;;;;36.57;25.13;;;9.60;59.90;;;;;;5045041;28;20208;-40
2021/01/01 03:52:53;;;;;;;36.77;24.33;;;9.60;59.90;;;;;;5044570;28;20199;-40
2021/01/01 03:55:18;;;;;;;28.83;21.50;;;9.60;59.80;;;;;;5058330;28;20596;-41
2021/01/01 03:57:44;;;;;;;27.13;21.80;;;9.60;59.90;;;;;;5058586;28;20189;-40
2021/01/01 04:00:10;;;;;;;30.13;20.93;;;9.50;59.70;;;;;;5050934;28;20188;-40
2021/01/01 04:02:36;;;;;;;27.80;17.97;;;9.40;59.90;;;;;;5053852;28;20203;-41
2021/01/01 04:05:02;;;;;;;22.60;15.60;;;9.30;60.40;;;;;;5048542;28;20785;-40
2021/01/01 04:07:27;;;;;;;22.73;15.90;;;9.20;60.80;;;;;;5060481;28;20246;-40
2021/01/01 04:09:53;;;;;;;19.63;15.57;;;8.90;61.30;;;;;;5046893;28;20197;-41
2021/01/01 04:12:19;;;;;;;20.60;15.10;;;9.00;61.60;;;;;;5057388;28;20915;-40
2021/01/01 04:14:44;;;;;;;21.17;14.90;;;9.00;61.90;;;;;;5048382;28;20193;-40
2021/01/01 04:17:10;;;;;;;21.20;15.97;;;9.10;61.70;;;;;;5054251;28;20192;-40
2021/01/01 04:19:36;;;;;;;19.30;15.70;;;9.20;61.60;;;;;;5050076;28;20223;-40
2021/01/01 04:22:01;;;;;;;27.43;16.33;;;9.30;61.20;;;;;;5046067;28;20216;-40
2021/01/01 04:24:27;;;;;;;25.47;16.50;;;9.30;61.10;;;;;;5038837;28;20204;-40
2021/01/01 04:26:53;;;;;;;22.37;16.80;;;9.40;61.20;;;;;;5041814;28;20192;-40
2021/01/01 04:29:19;;;;;;;23.33;17.40;;;9.40;61.20;;;;;;5042580;28;20227;-40
2021/01/01 04:31:44;;;;;;;21.70;17.30;;;9.40;61.00;;;;;;5046312;28;20220;-40
2021/01/01 04:34:10;;;;;;;23.00;17.57;;;9.50;60.80;;;;;;5051682;28;20492;-40
2021/01/01 04:36:36;;;;;;;28.90;19.70;;;9.50;60.80;;;;;;5041879;28;20189;-40
2021/01/01 04:39:07;;;;;;;26.90;20.40;;;9.40;60.80;;;;;;5042249;28;20185;-40
2021/01/01 04:41:40;;;;;;;33.40;22.27;;;9.50;60.80;;;;;;5046240;28;20849;-40
2021/01/01 04:44:06;;;;;;;39.37;23.73;;;9.50;60.80;;;;;;5047022;28;20528;-40
2021/01/01 04:46:32;;;;;;;28.70;20.67;;;9.50;61.10;;;;;;5044024;28;20446;-40
2021/01/01 04:49:01;;;;;;;28.20;21.30;;;9.50;60.80;;;;;;5054976;28;20443;-40
2021/01/01 04:51:27;;;;;;;34.70;21.63;;;9.50;60.70;;;;;;5047856;28;20490;-40
2021/01/01 04:53:56;;;;;;;33.20;22.97;;;9.40;60.70;;;;;;5043457;28;20873;-40
2021/01/01 04:56:22;;;;;;;32.77;23.30;;;9.40;61.20;;;;;;5050060;28;20447;-40
2021/01/01 04:58:47;;;;;;;29.93;22.20;;;9.40;61.10;;;;;;5049698;28;20580;-40
2021/01/01 05:01:13;;;;;;;29.37;22.70;;;9.40;60.80;;;;;;5048608;28;20543;-40
2021/01/01 05:03:39;;;;;;;33.17;24.23;;;9.50;60.90;;;;;;5050162;28;20658;-40
2021/01/01 05:06:04;;;;;;;32.30;23.70;;;9.50;60.80;;;;;;5048077;28;20193;-40
2021/01/01 05:08:30;;;;;;;37.10;23.77;;;9.50;60.80;;;;;;5049563;28;20333;-40
2021/01/01 05:10:55;;;;;;;35.00;23.97;;;9.30;61.10;;;;;;5058411;28;20224;-40
2021/01/01 05:13:22;;;;;;;33.17;23.67;;;9.40;61.20;;;;;;5051020;28;20237;-40
2021/01/01 05:15:49;;;;;;;38.17;26.50;;;9.50;61.10;;;;;;5061795;28;20192;-40
2021/01/01 05:18:41;;;;;;;35.33;24.97;;;9.50;61.10;;;;;;5061874;28;20450;-40
2021/01/01 05:21:07;;;;;;;35.37;24.83;;;9.50;61.00;;;;;;5045056;28;20451;-40
2021/01/01 05:23:39;;;;;;;34.00;22.80;;;9.50;60.90;;;;;;5057927;28;20499;-40
2021/01/01 05:26:12;;;;;;;29.90;21.90;;;9.50;60.70;;;;;;5049782;28;20184;-40
2021/01/01 05:28:50;;;;;;;33.10;22.37;;;9.50;60.70;;;;;;5047774;28;20497;-40
2021/01/01 05:31:20;;;;;;;32.60;22.33;;;9.50;60.60;;;;;;5049852;28;20488;-39
2021/01/01 05:34:01;;;;;;;30.20;21.53;;;9.50;60.70;;;;;;5048908;28;20435;-39
2021/01/01 05:36:31;;;;;;;28.57;21.33;;;9.50;60.90;;;;;;5051994;28;20454;-40
2021/01/01 05:38:57;;;;;;;33.20;23.80;;;9.50;61.00;;;;;;5052587;28;20800;-39
2021/01/01 05:41:38;;;;;;;30.10;21.87;;;9.50;60.80;;;;;;5047186;28;20455;-39
2021/01/01 05:44:10;;;;;;;28.17;22.10;;;9.50;60.90;;;;;;5047877;28;20438;-39
2021/01/01 05:46:37;;;;;;;30.97;20.80;;;9.50;60.90;;;;;;5049881;28;20443;-40
2021/01/01 05:49:03;;;;;;;26.10;19.97;;;9.50;60.80;;;;;;5046069;28;20454;-39
2021/01/01 05:51:29;;;;;;;31.40;21.50;;;9.60;60.90;;;;;;5042950;28;20497;-39
2021/01/01 05:54:11;;;;;;;35.70;24.90;;;9.60;60.80;;;;;;5059844;28;20534;-40
2021/01/01 05:56:39;;;;;;;28.00;21.33;;;9.60;60.80;;;;;;5047889;28;20199;-39
2021/01/01 05:59:14;;;;;;;30.03;20.20;;;9.50;60.60;;;;;;5049081;28;20540;-39
2021/01/01 06:01:41;;;;;;;26.10;19.47;;;9.50;60.90;;;;;;5042496;28;20454;-40
2021/01/01 06:04:07;;;;;;;26.70;17.07;;;9.50;60.70;;;;;;5046080;28;20465;-39
2021/01/01 06:06:33;;;;;;;25.23;18.00;;;9.50;60.80;;;;;;5049689;28;20897;-40
2021/01/01 06:09:04;;;;;;;29.40;19.10;;;9.50;60.70;;;;;;5052437;28;20188;-40
2021/01/01 06:11:37;;;;;;;29.80;20.43;;;9.60;60.60;;;;;;5055974;28;20487;-40
2021/01/01 06:14:05;;;;;;;23.20;18.17;;;9.60;60.30;;;;;;5052152;28;20442;-39
2021/01/01 06:16:44;;;;;;;28.43;18.93;;;9.50;60.20;;;;;;5053519;28;20764;-40
2021/01/01 06:19:12;;;;;;;24.93;20.50;;;9.50;60.60;;;;;;5045744;28;20858;-39
2021/01/01 06:21:50;;;;;;;29.03;20.67;;;9.50;60.80;;;;;;5046295;28;20507;-39
2021/01/01 06:24:19;;;;;;;26.03;19.37;;;9.50;61.20;;;;;;5050023;28;20582;-39
2021/01/01 06:26:45;;;;;;;29.77;19.50;;;9.50;61.40;;;;;;5046148;28;20479;-39
2021/01/01 06:29:16;;;;;;;28.30;21.33;;;9.50;61.40;;;;;;5056376;28;20435;-39
2021/01/01 06:31:44;;;;;;;27.30;19.70;;;9.50;61.80;;;;;;5054858;28;20944;-39
2021/01/01 06:34:29;;;;;;;25.37;19.20;;;9.50;61.80;;;;;;5055682;28;20495;-40
2021/01/01 06:36:55;;;;;;;25.70;19.17;;;9.50;62.00;;;;;;5055494;28;20442;-39
2021/01/01 06:39:37;;;;;;;15.30;12.33;;;9.50;61.90;;;;;;5065326;28;20449;-39
2021/01/01 06:42:03;;;;;;;10.77;8.47;;;9.20;62.10;;;;;;5052853;28;20475;-39
2021/01/01 06:44:38;;;;;;;9.87;7.83;;;9.10;62.00;;;;;;5056176;28;20439;-40
2021/01/01 06:47:07;;;;;;;9.60;7.43;;;9.20;61.70;;;;;;5050729;28;20465;-39
2021/01/01 06:49:38;;;;;;;9.87;7.57;;;9.20;61.70;;;;;;5052208;28;20816;-39
2021/01/01 06:52:14;;;;;;;10.17;7.37;;;9.10;61.70;;;;;;5051615;28;20501;-40
2021/01/01 06:54:58;;;;;;;9.60;6.60;;;9.10;61.40;;;;;;5047193;28;20446;-40
2021/01/01 06:57:29;;;;;;;8.43;6.60;;;9.20;61.20;;;;;;5044153;28;20496;-40
2021/01/01 06:59:56;;;;;;;7.10;6.40;;;9.20;60.70;;;;;;5050554;28;20446;-40
2021/01/01 07:02:29;;;;;;;9.13;5.30;;;9.20;61.00;;;;;;5060297;28;20796;-40
2021/01/01 07:04:55;;;;;;;7.50;6.07;;;9.30;60.80;;;;;;5051706;28;20557;-39
2021/01/01 07:07:41;;;;;;;12.07;10.80;;;9.40;60.40;;;;;;5052891;28;21070;-40
2021/01/01 07:10:12;;;;;;;6.43;5.83;;;9.60;59.90;;;;;;5047708;28;20451;-40
2021/01/01 07:12:38;;;;;;;5.17;4.60;;;9.70;59.40;;;;;;5049564;28;20496;-40
2021/01/01 07:15:24;;;;;;;5.60;4.80;;;9.80;58.80;;;;;;5051398;28;21254;-40
2021/01/01 07:17:50;;;;;;;6.43;5.00;;;9.60;58.40;;;;;;5056557;28;20255;-40
2021/01/01 07:20:15;;;;;;;5.13;4.63;;;9.80;59.00;;;;;;5052415;28;20787;-40
2021/01/01 07:22:41;;;;;;;6.37;5.43;;;10.00;58.00;;;;;;5047855;28;20603;-40
2021/01/01 07:25:07;;;;;;;5.27;4.77;;;10.20;57.60;;;;;;5048074;28;20185;-40
2021/01/01 07:27:33;;;;;;;5.13;4.60;;;10.30;56.90;;;;;;5043607;28;20722;-40
2021/01/01 07:30:12;;;;;;;5.07;4.57;;;10.50;56.50;;;;;;5052810;28;20446;-40
2021/01/01 07:32:38;;;;;;;17.10;14.10;;;10.50;55.80;;;;;;5055862;28;20266;-40
2021/01/01 07:35:09;;;;;;;6.37;5.63;;;10.50;55.70;;;;;;5047626;28;20443;-40
2021/01/01 07:37:35;;;;;;;5.83;5.10;;;10.50;55.60;;;;;;5047572;28;20454;-41
2021/01/01 07:40:01;;;;;;;6.23;4.97;;;10.50;55.20;;;;;;5045418;28;20438;-41
2021/01/01 07:42:26;;;;;;;6.80;5.70;;;10.50;55.20;;;;;;5041134;28;20451;-41
2021/01/01 07:44:52;;;;;;;5.67;4.70;;;10.60;55.00;;;;;;5052629;28;20201;-41
2021/01/01 07:47:18;;;;;;;7.47;6.23;;;10.60;55.00;;;;;;5047604;28;20204;-41
2021/01/01 07:49:44;;;;;;;5.00;4.27;;;10.70;54.60;;;;;;5050609;28;20648;-41
2021/01/01 07:52:15;;;;;;;5.10;4.60;;;10.70;54.60;;;;;;5051619;28;20493;-41
2021/01/01 07:54:47;;;;;;;6.57;4.03;;;10.90;54.70;;;;;;5052209;28;20672;-41
2021/01/01 07:57:13;;;;;;;5.03;4.63;;;10.80;54.30;;;;;;5053913;28;20443;-41
2021/01/01 07:59:39;;;;;;;5.83;5.10;;;10.90;54.30;;;;;;5056112;28;20881;-41
2021/01/01 08:02:06;;;;;;;4.70;4.20;;;10.90;54.00;;;;;;5051568;28;20192;-41
2021/01/01 08:04:34;;;;;;;5.20;4.70;;;10.90;53.90;;;;;;5049507;28;20242;-41
2021/01/01 08:06:59;;;;;;;4.00;3.40;;;11.00;54.00;;;;;;5056408;28;20457;-41
2021/01/01 08:09:25;;;;;;;5.33;4.00;;;11.00;53.80;;;;;;5060964;28;20442;-41
2021/01/01 08:12:02;;;;;;;5.20;4.03;;;11.00;53.30;;;;;;5064731;28;20269;-41
2021/01/01 08:14:27;;;;;;;4.30;3.90;;;11.00;53.50;;;;;;5050960;28;20227;-41
2021/01/01 08:16:53;;;;;;;5.17;3.60;;;11.10;53.50;;;;;;5049651;28;20435;-41
2021/01/01 08:19:23;;;;;;;4.07;3.67;;;11.10;53.40;;;;;;5056791;28;20937;-41
2021/01/01 08:22:03;;;;;;;5.13;4.53;;;11.10;53.20;;;;;;5046780;28;20184;-41
2021/01/01 08:24:31;;;;;;;3.97;3.60;;;11.20;53.60;;;;;;5050516;28;20778;-40
2021/01/01 08:26:57;;;;;;;4.70;4.30;;;11.30;53.50;;;;;;5049889;28;20431;-41
2021/01/01 08:29:23;;;;;;;4.53;4.10;;;11.40;53.20;;;;;;5049542;28;20439;-41
2021/01/01 08:31:48;;;;;;;8.53;4.20;;;11.40;52.80;;;;;;5051064;28;20220;-41
2021/01/01 08:34:14;;;;;;;4.83;4.43;;;11.50;52.60;;;;;;5048534;28;20242;-41
2021/01/01 08:36:40;;;;;;;3.83;3.40;;;11.50;52.60;;;;;;5056388;28;20339;-41
2021/01/01 08:39:06;;;;;;;4.93;4.23;;;11.60;52.50;;;;;;5055986;28;20188;-40
2021/01/01 08:41:40;;;;;;;5.40;4.77;;;11.70;52.50;;;;;;5056824;28;20236;-41
2021/01/01 08:44:08;;;;;;;5.80;5.20;;;11.80;52.70;;;;;;5052150;28;20948;-41
2021/01/01 08:46:33;;;;;;;5.20;4.70;;;11.80;52.40;;;;;;5052701;28;20438;-41
2021/01/01 08:49:18;;;;;;;5.90;4.90;;;11.80;52.10;;;;;;5049341;28;20775;-41
2021/01/01 08:51:45;;;;;;;5.23;4.40;;;11.80;51.80;;;;;;5049725;28;20228;-41
2021/01/01 08:54:24;;;;;;;5.40;4.63;;;11.80;51.70;;;;;;5053043;28;20426;-41
2021/01/01 08:56:58;;;;;;;4.40;4.00;;;11.80;51.60;;;;;;5056644;28;20435;-41
2021/01/01 08:59:24;;;;;;;4.70;4.30;;;11.80;51.50;;;;;;5050762;28;20452;-41
2021/01/01 09:01:51;;;;;;;4.50;4.10;;;11.80;51.50;;;;;;5055070;28;20904;-41
2021/01/01 09:04:17;;;;;;;4.67;4.23;;;11.90;51.10;;;;;;5057759;28;20427;-40
2021/01/01 09:07:00;;;;;;;4.93;3.90;;;11.90;51.40;;;;;;5052424;28;20427;-41
2021/01/01 09:09:31;;;;;;;3.27;3.00;;;12.00;51.60;;;;;;5041225;28;20439;-41
2021/01/01 09:12:19;;;;;;;4.37;3.97;;;12.00;50.90;;;;;;5049154;28;20489;-41
2021/01/01 09:14:47;;;;;;;6.43;4.73;;;12.10;50.90;;;;;;5050068;28;20438;-41
2021/01/01 09:17:13;;;;;;;6.33;5.37;;;12.10;51.10;;;;;;5049452;28;20443;-41
2021/01/01 09:19:38;;;;;;;5.20;4.70;;;12.20;51.20;;;;;;5065178;28;20988;-41
2021/01/01 09:22:18;;;;;;;9.00;5.60;;;12.20;51.20;;;;;;5050129;28;20193;-41
2021/01/01 09:24:46;;;;;;;5.97;5.37;;;12.20;51.40;;;;;;5054523;28;20734;-40
2021/01/01 09:27:12;;;;;;;5.60;5.10;;;12.20;51.40;;;;;;5053816;28;20427;-41
2021/01/01 09:29:38;;;;;;;6.50;5.50;;;12.20;51.20;;;;;;5050151;28;20526;-41
2021/01/01 09:32:09;;;;;;;7.37;6.60;;;12.10;51.50;;;;;;5048733;28;20491;-41
2021/01/01 09:34:34;;;;;;;5.23;4.77;;;12.10;51.60;;;;;;5039776;28;20216;-41
2021/01/01 09:37:08;;;;;;;6.17;5.57;;;12.10;51.30;;;;;;5057137;28;20434;-41
2021/01/01 09:39:34;;;;;;;6.53;5.40;;;12.10;51.10;;;;;;5054377;28;20196;-41
2021/01/01 09:41:59;;;;;;;6.60;5.87;;;12.10;51.00;;;;;;5055819;28;20458;-41
2021/01/01 09:44:25;;;;;;;6.93;6.13;;;12.10;51.20;;;;;;5052066;28;20190;-41
2021/01/01 09:46:51;;;;;;;5.90;5.30;;;12.10;51.50;;;;;;5049984;28;20212;-40
2021/01/01 09:49:16;;;;;;;6.00;5.20;;;12.20;51.70;;;;;;5050107;28;20535;-41
2021/01/01 09:51:42;;;;;;;7.00;5.80;;;12.20;51.30;;;;;;5042877;28;20220;-41
2021/01/01 09:54:08;;;;;;;8.13;6.10;;;12.20;51.30;;;;;;5045066;28;20188;-41
2021/01/01 09:56:37;;;;;;;6.60;5.90;;;12.20;51.10;;;;;;5050342;28;20667;-41
2021/01/01 09:59:03;;;;;;;6.40;5.50;;;12.20;51.00;;;;;;5046536;28;20570;-42
2021/01/01 10:01:30;;;;;;;8.03;6.20;;;12.10;50.70;;;;;;5052113;28;20450;-41
2021/01/01 10:03:57;;;;;;;8.17;5.67;;;12.10;50.90;;;;;;5058013;28;20435;-41
2021/01/01 10:06:22;;;;;;;5.43;4.93;;;12.10;51.20;;;;;;5050191;28;20443;-41
2021/01/01 10:08:48;;;;;;;5.90;5.30;;;12.10;51.30;;;;;;5050686;28;20476;-41
2021/01/01 10:11:15;;;;;;;7.47;5.90;;;12.20;51.30;;;;;;5054371;28;20246;-41
2021/01/01 10:13:41;;;;;;;6.13;5.30;;;12.20;50.80;;;;;;5056247;28;20195;-41
2021/01/01 10:16:11;;;;;;;5.93;5.33;;;12.30;50.80;;;;;;5054738;28;20860;-41
2021/01/01 10:18:38;;;;;;;4.77;4.37;;;12.30;50.40;;;;;;5057539;28;20429;-40
2021/01/01 10:21:04;;;;;;;5.90;5.07;;;12.30;50.30;;;;;;5054525;28;20439;-41
2021/01/01 10:23:30;;;;;;;4.60;4.20;;;12.30;50.00;;;;;;5059680;28;20438;-41
2021/01/01 10:25:55;;;;;;;6.03;5.47;;;12.30;50.40;;;;;;5056553;28;20431;-41
2021/01/01 10:28:21;;;;;;;6.27;5.67;;;12.30;50.60;;;;;;5052796;28;20188;-41
2021/01/01 10:30:47;;;;;;;6.10;5.37;;;12.30;50.40;;;;;;5051441;28;20216;-41
2021/01/01 10:33:13;;;;;;;6.33;5.73;;;12.40;50.60;;;;;;5062153;28;20195;-41
2021/01/01 10:35:40;;;;;;;7.30;6.37;;;12.40;50.30;;;;;;5062739;28;20431;-41
2021/01/01 10:38:05;;;;;;;6.20;5.50;;;12.30;50.20;;;;;;5061383;28;20495;-41
2021/01/01 10:40:31;;;;;;;6.40;5.80;;;12.40;50.70;;;;;;5055708;28;20478;-41
2021/01/01 10:42:57;;;;;;;6.00;5.40;;;12.40;50.90;;;;;;5051782;28;20183;-41
2021/01/01 10:45:23;;;;;;;6.73;4.87;;;12.50;50.40;;;;;;5054763;28;20584;-41
2021/01/01 10:47:49;;;;;;;6.87;5.80;;;12.30;50.10;;;;;;5053602;28;20438;-41
2021/01/01 10:50:15;;;;;;;5.70;4.73;;;12.30;50.40;;;;;;5051887;28;20276;-41
2021/01/01 10:52:40;;;;;;;5.00;4.50;;;12.10;49.80;;;;;;5055251;28;20220;-41
2021/01/01 10:55:06;;;;;;;6.00;5.40;;;11.90;49.70;;;;;;5066574;28;20455;-41
2021/01/01 10:57:32;;;;;;;5.43;4.93;;;11.90;50.50;;;;;;5054447;28;20195;-41
2021/01/01 10:59:58;;;;;;;6.00;4.90;;;12.00;50.70;;;;;;5051865;28;20454;-41
2021/01/01 11:02:24;;;;;;;4.60;4.20;;;12.10;50.70;;;;;;5059320;28;20468;-41
2021/01/01 11:04:49;;;;;;;4.83;4.40;;;12.10;50.40;;;;;;5060973;28;20220;-41
2021/01/01 11:07:15;;;;;;;4.70;4.30;;;12.10;49.30;;;;;;5054595;28;20627;-41
2021/01/01 11:09:40;;;;;;;5.30;4.80;;;11.80;49.40;;;;;;5054791;28;20204;-41
2021/01/01 11:12:08;;;;;;;5.50;5.00;;;11.80;50.00;;;;;;5065596;28;20255;-41
2021/01/01 12:23:12;;;;;;;6.67;5.97;;;11.80;50.50;;;;;;5050945;28;20439;-41
2021/01/01 12:25:38;;;;;;;6.87;6.00;;;11.70;50.10;;;;;;5055548;28;20437;-40
2021/01/01 12:28:05;;;;;;;7.53;6.10;;;11.60;50.60;;;;;;5053246;28;20438;-40
2021/01/01 12:30:31;;;;;;;7.17;6.47;;;11.40;51.00;;;;;;5067883;28;20620;-41
2021/01/01 12:32:59;;;;;;;5.90;5.20;;;11.30;51.40;;;;;;5053935;28;20442;-41
2021/01/01 12:35:25;;;;;;;7.77;6.83;;;11.20;50.80;;;;;;5052095;28;20782;-40
2021/01/01 12:38:01;;;;;;;6.60;5.80;;;11.30;50.80;;;;;;5052740;28;20446;-40
2021/01/01 12:40:28;;;;;;;5.27;4.60;;;11.30;50.60;;;;;;5064743;28;20316;-40
2021/01/01 12:42:54;;;;;;;6.80;5.47;;;11.20;50.70;;;;;;5051121;28;20416;-40
2021/01/01 12:45:20;;;;;;;8.57;7.33;;;11.10;51.30;;;;;;5051259;28;20522;-40
2021/01/01 12:47:45;;;;;;;7.13;6.00;;;11.10;50.90;;;;;;5063762;28;20576;-41
2021/01/01 12:50:11;;;;;;;7.00;5.57;;;11.20;50.90;;;;;;5053645;28;20428;-41
2021/01/01 12:52:37;;;;;;;8.70;6.40;;;11.20;50.80;;;;;;5053092;28;20211;-41
2021/01/01 12:55:03;;;;;;;6.30;5.70;;;11.30;51.30;;;;;;5054388;28;20793;-41
2021/01/01 12:57:28;;;;;;;6.07;5.47;;;11.30;51.30;;;;;;5052830;28;20200;-41
2021/01/01 12:59:54;;;;;;;7.50;5.73;;;11.30;50.90;;;;;;5062282;28;20441;-40
2021/01/01 13:02:20;;;;;;;8.40;5.90;;;11.30;50.80;;;;;;5060036;28;20698;-40
2021/01/01 13:04:45;;;;;;;6.50;5.40;;;11.30;51.10;;;;;;5055717;28;20200;-41
2021/01/01 13:07:11;;;;;;;7.40;5.97;;;11.20;51.00;;;;;;5054993;28;20317;-40
2021/01/01 13:09:36;;;;;;;7.60;6.00;;;11.10;51.40;;;;;;5055751;28;20239;-41
2021/01/01 13:12:02;;;;;;;7.27;6.37;;;11.20;51.60;;;;;;5050090;28;20305;-40
2021/01/01 13:14:27;;;;;;;7.90;6.50;;;11.10;51.30;;;;;;5051515;28;20181;-40
2021/01/01 13:16:55;;;;;;;8.70;7.73;;;11.20;52.00;;;;;;5044057;28;20211;-41
2021/01/01 13:19:21;;;;;;;12.67;11.27;;;11.10;51.70;;;;;;5048592;28;20196;-41
2021/01/01 13:21:46;;;;;;;12.10;10.97;;;11.00;52.10;;;;;;5059449;28;20427;-41
2021/01/01 13:24:12;;;;;;;8.70;6.43;;;11.00;52.40;;;;;;5048162;28;20280;-41
2021/01/01 13:26:37;;;;;;;10.27;7.33;;;11.10;52.40;;;;;;5049084;28;20208;-41
2021/01/01 13:29:04;;;;;;;8.77;6.13;;;11.20;51.40;;;;;;5056126;28;20254;-40
2021/01/01 13:31:38;;;;;;;7.17;6.33;;;11.10;51.70;;;;;;5050318;28;20221;-41
2021/01/01 13:34:05;;;;;;;9.63;6.90;;;11.10;51.60;;;;;;5051068;28;20435;-41
2021/01/01 13:36:31;;;;;;;8.00;7.03;;;11.20;51.80;;;;;;5062450;28;20518;-40
2021/01/01 13:38:57;;;;;;;7.70;6.57;;;11.20;51.80;;;;;;5049195;28;20497;-40
2021/01/01 13:41:23;;;;;;;10.57;8.33;;;11.20;51.50;;;;;;5047323;28;20498;-41
2021/01/01 13:43:48;;;;;;;9.13;7.33;;;11.20;51.20;;;;;;5048671;28;20223;-40
2021/01/01 13:46:40;;;;;;;6.90;5.73;;;11.20;51.60;;;;;;5053336;28;20184;-41
2021/01/01 13:49:07;;;;;;;9.87;6.70;;;11.20;51.50;;;;;;5049542;28;20253;-40
2021/01/01 13:51:36;;;;;;;7.40;6.00;;;11.10;51.30;;;;;;5051196;28;20833;-41